sensor_id;sensor_type;location;lat;lon;timestamp;temperature;humidity
71672;DHT22;59753;45.624;11.700;2022-07-06T17:38:30;28.60;69.90
71672;DHT22;59753;45.624;11.700;2022-07-06T17:40:56;29.70;52.90
71672;DHT22;59753;45.624;11.700;2022-07-06T17:43:23;29.70;51.90
71672;DHT22;59753;45.624;11.700;2022-07-06T17:45:50;29.70;52.70
71672;DHT22;59753;45.624;11.700;2022-07-06T17:48:16;29.80;52.90
71672;DHT22;59753;45.624;11.700;2022-07-06T17:50:45;29.70;53.40
71672;DHT22;59753;45.624;11.700;2022-07-06T17:53:16;29.70;53.40
71672;DHT22;59753;45.624;11.700;2022-07-06T17:55:45;29.70;53.60
71672;DHT22;59753;45.624;11.700;2022-07-06T17:58:15;29.60;54.40
71672;DHT22;59753;45.624;11.700;2022-07-06T18:00:42;29.60;54.30
71672;DHT22;59753;45.624;11.700;2022-07-06T18:03:08;29.60;54.60
71672;DHT22;59753;45.624;11.700;2022-07-06T18:05:34;29.60;54.90
71672;DHT22;59753;45.624;11.700;2022-07-06T18:08:02;29.50;54.80
71672;DHT22;59753;45.624;11.700;2022-07-06T18:10:29;29.50;54.70
71672;DHT22;59753;45.624;11.700;2022-07-06T18:12:57;29.50;54.50
71672;DHT22;59753;45.624;11.700;2022-07-06T18:15:23;29.50;54.90
71672;DHT22;59753;45.624;11.700;2022-07-06T18:17:49;29.60;55.00
71672;DHT22;59753;45.624;11.700;2022-07-06T18:20:17;29.50;54.90
71672;DHT22;59753;45.624;11.700;2022-07-06T18:22:43;29.50;54.80
71672;DHT22;59753;45.624;11.700;2022-07-06T18:25:09;29.50;54.70
71672;DHT22;59753;45.624;11.700;2022-07-06T18:27:35;29.50;54.80
71672;DHT22;59753;45.624;11.700;2022-07-06T18:30:02;29.50;55.00
71672;DHT22;59753;45.624;11.700;2022-07-06T18:32:28;29.50;54.80
71672;DHT22;59753;45.624;11.700;2022-07-06T18:34:54;29.50;54.90
71672;DHT22;59753;45.624;11.700;2022-07-06T18:37:20;29.50;55.20
71672;DHT22;59753;45.624;11.700;2022-07-06T18:39:46;29.50;55.10
71672;DHT22;59753;45.624;11.700;2022-07-06T18:42:12;29.50;55.00
71672;DHT22;59753;45.624;11.700;2022-07-06T18:44:38;29.50;55.40
71672;DHT22;59753;45.624;11.700;2022-07-06T18:47:04;29.50;55.30
71672;DHT22;59753;45.624;11.700;2022-07-06T18:49:30;29.50;55.10
71672;DHT22;59753;45.624;11.700;2022-07-06T18:51:56;29.50;54.60
71672;DHT22;59753;45.624;11.700;2022-07-06T18:54:22;29.50;54.80
71672;DHT22;59753;45.624;11.700;2022-07-06T18:56:48;29.50;55.00
71672;DHT22;59753;45.624;11.700;2022-07-06T18:59:13;29.50;55.70
71672;DHT22;59753;45.624;11.700;2022-07-06T19:01:39;29.50;55.80
71672;DHT22;59753;45.624;11.700;2022-07-06T19:04:05;29.50;56.00
71672;DHT22;59753;45.624;11.700;2022-07-06T19:06:31;29.50;55.80
71672;DHT22;59753;45.624;11.700;2022-07-06T19:08:57;29.50;55.90
71672;DHT22;59753;45.624;11.700;2022-07-06T19:11:23;29.40;55.80
71672;DHT22;59753;45.624;11.700;2022-07-06T19:13:49;29.50;55.90
71672;DHT22;59753;45.624;11.700;2022-07-06T19:16:15;29.50;55.70
71672;DHT22;59753;45.624;11.700;2022-07-06T19:18:41;29.50;55.60
71672;DHT22;59753;45.624;11.700;2022-07-06T19:21:07;29.50;55.80
71672;DHT22;59753;45.624;11.700;2022-07-06T19:23:37;29.50;55.80
71672;DHT22;59753;45.624;11.700;2022-07-06T19:26:06;29.50;56.00
71672;DHT22;59753;45.624;11.700;2022-07-06T19:28:35;29.50;56.10
71672;DHT22;59753;45.624;11.700;2022-07-06T19:31:00;29.50;56.00
71672;DHT22;59753;45.624;11.700;2022-07-06T19:33:26;29.50;55.90
71672;DHT22;59753;45.624;11.700;2022-07-06T19:35:53;29.50;56.30
71672;DHT22;59753;45.624;11.700;2022-07-06T19:38:19;29.40;58.10
71672;DHT22;59753;45.624;11.700;2022-07-06T19:40:45;29.50;58.60
71672;DHT22;59753;45.624;11.700;2022-07-06T19:43:13;29.50;58.60
71672;DHT22;59753;45.624;11.700;2022-07-06T19:45:40;29.60;58.70
71672;DHT22;59753;45.624;11.700;2022-07-06T19:48:07;29.60;58.40
71672;DHT22;59753;45.624;11.700;2022-07-06T19:50:53;29.60;57.90
71672;DHT22;59753;45.624;11.700;2022-07-06T19:53:19;29.80;58.20
71672;DHT22;59753;45.624;11.700;2022-07-06T19:55:45;29.80;57.70
71672;DHT22;59753;45.624;11.700;2022-07-06T19:58:11;29.90;57.70
71672;DHT22;59753;45.624;11.700;2022-07-06T20:00:37;29.90;57.40
71672;DHT22;59753;45.624;11.700;2022-07-06T20:03:03;30.00;57.40
71672;DHT22;59753;45.624;11.700;2022-07-06T20:05:29;30.10;56.60
71672;DHT22;59753;45.624;11.700;2022-07-06T20:07:55;30.10;54.40
71672;DHT22;59753;45.624;11.700;2022-07-06T20:10:21;30.20;52.10
71672;DHT22;59753;45.624;11.700;2022-07-06T20:12:48;30.30;49.80
71672;DHT22;59753;45.624;11.700;2022-07-06T20:15:14;30.30;48.90
71672;DHT22;59753;45.624;11.700;2022-07-06T20:17:40;30.40;48.50
71672;DHT22;59753;45.624;11.700;2022-07-06T20:20:07;30.40;48.20
71672;DHT22;59753;45.624;11.700;2022-07-06T20:22:33;30.40;48.00
71672;DHT22;59753;45.624;11.700;2022-07-06T20:24:59;30.50;47.40
71672;DHT22;59753;45.624;11.700;2022-07-06T20:27:24;30.60;47.00
71672;DHT22;59753;45.624;11.700;2022-07-06T20:29:51;30.50;47.90
71672;DHT22;59753;45.624;11.700;2022-07-06T20:32:17;30.60;48.00
71672;DHT22;59753;45.624;11.700;2022-07-06T20:34:43;30.70;46.90
71672;DHT22;59753;45.624;11.700;2022-07-06T20:37:09;30.70;47.00
71672;DHT22;59753;45.624;11.700;2022-07-06T20:39:35;30.70;47.60
71672;DHT22;59753;45.624;11.700;2022-07-06T20:42:01;30.80;47.30
71672;DHT22;59753;45.624;11.700;2022-07-06T20:44:27;30.70;47.70
71672;DHT22;59753;45.624;11.700;2022-07-06T20:46:53;30.80;47.80
71672;DHT22;59753;45.624;11.700;2022-07-06T20:49:18;30.90;47.10
71672;DHT22;59753;45.624;11.700;2022-07-06T20:51:44;30.90;46.90
71672;DHT22;59753;45.624;11.700;2022-07-06T20:54:10;31.00;47.60
71672;DHT22;59753;45.624;11.700;2022-07-06T20:56:36;31.00;47.60
71672;DHT22;59753;45.624;11.700;2022-07-06T20:59:02;30.90;47.80
71672;DHT22;59753;45.624;11.700;2022-07-06T21:01:28;31.00;47.00
71672;DHT22;59753;45.624;11.700;2022-07-06T21:03:54;31.10;47.00
71672;DHT22;59753;45.624;11.700;2022-07-06T21:06:20;31.00;46.90
71672;DHT22;59753;45.624;11.700;2022-07-06T21:08:46;31.20;46.80
71672;DHT22;59753;45.624;11.700;2022-07-06T21:11:12;31.10;46.90
71672;DHT22;59753;45.624;11.700;2022-07-06T21:13:38;31.00;46.30
71672;DHT22;59753;45.624;11.700;2022-07-06T21:16:04;31.20;46.30
71672;DHT22;59753;45.624;11.700;2022-07-06T21:18:30;31.10;46.20
71672;DHT22;59753;45.624;11.700;2022-07-06T21:20:57;31.10;46.70
71672;DHT22;59753;45.624;11.700;2022-07-06T21:23:22;31.10;46.80
71672;DHT22;59753;45.624;11.700;2022-07-06T21:25:48;31.10;47.10
71672;DHT22;59753;45.624;11.700;2022-07-06T21:28:14;31.20;47.10
71672;DHT22;59753;45.624;11.700;2022-07-06T21:30:40;31.20;47.20
71672;DHT22;59753;45.624;11.700;2022-07-06T21:33:06;31.30;47.20
71672;DHT22;59753;45.624;11.700;2022-07-06T21:35:32;31.20;47.30
71672;DHT22;59753;45.624;11.700;2022-07-06T21:37:58;31.20;46.90
71672;DHT22;59753;45.624;11.700;2022-07-06T21:40:24;31.20;47.20
71672;DHT22;59753;45.624;11.700;2022-07-06T21:42:49;31.30;47.60
71672;DHT22;59753;45.624;11.700;2022-07-06T21:45:15;31.20;47.40
71672;DHT22;59753;45.624;11.700;2022-07-06T21:47:41;31.30;47.50
71672;DHT22;59753;45.624;11.700;2022-07-06T21:50:07;31.30;47.50
71672;DHT22;59753;45.624;11.700;2022-07-06T21:52:33;31.20;47.60
71672;DHT22;59753;45.624;11.700;2022-07-06T21:54:59;31.30;47.40
71672;DHT22;59753;45.624;11.700;2022-07-06T21:57:25;31.30;47.50
71672;DHT22;59753;45.624;11.700;2022-07-06T21:59:51;31.30;47.70
71672;DHT22;59753;45.624;11.700;2022-07-06T22:02:17;31.20;47.80
71672;DHT22;59753;45.624;11.700;2022-07-06T22:04:43;31.30;47.60
71672;DHT22;59753;45.624;11.700;2022-07-06T22:07:09;31.40;47.70
71672;DHT22;59753;45.624;11.700;2022-07-06T22:09:36;31.40;47.70
71672;DHT22;59753;45.624;11.700;2022-07-06T22:12:02;31.40;47.90
71672;DHT22;59753;45.624;11.700;2022-07-06T22:14:28;31.30;48.00
71672;DHT22;59753;45.624;11.700;2022-07-06T22:16:56;31.30;48.20
71672;DHT22;59753;45.624;11.700;2022-07-06T22:19:21;31.30;48.50
71672;DHT22;59753;45.624;11.700;2022-07-06T22:21:47;31.20;48.30
71672;DHT22;59753;45.624;11.700;2022-07-06T22:24:14;31.10;48.40
71672;DHT22;59753;45.624;11.700;2022-07-06T22:26:40;31.10;48.70
71672;DHT22;59753;45.624;11.700;2022-07-06T22:29:07;31.10;49.10
71672;DHT22;59753;45.624;11.700;2022-07-06T22:31:33;31.00;48.90
71672;DHT22;59753;45.624;11.700;2022-07-06T22:33:59;31.00;49.10
71672;DHT22;59753;45.624;11.700;2022-07-06T22:36:25;31.00;49.40
71672;DHT22;59753;45.624;11.700;2022-07-06T22:38:54;30.90;49.60
71672;DHT22;59753;45.624;11.700;2022-07-06T22:41:21;30.90;49.70
71672;DHT22;59753;45.624;11.700;2022-07-06T22:43:50;30.70;50.10
71672;DHT22;59753;45.624;11.700;2022-07-06T22:46:16;30.60;50.50
71672;DHT22;59753;45.624;11.700;2022-07-06T22:48:44;30.60;50.70
71672;DHT22;59753;45.624;11.700;2022-07-06T22:51:10;30.50;50.90
71672;DHT22;59753;45.624;11.700;2022-07-06T22:53:36;30.50;51.20
71672;DHT22;59753;45.624;11.700;2022-07-06T22:56:03;30.50;51.20
71672;DHT22;59753;45.624;11.700;2022-07-06T22:58:30;30.40;51.60
71672;DHT22;59753;45.624;11.700;2022-07-06T23:00:56;30.40;52.00
71672;DHT22;59753;45.624;11.700;2022-07-06T23:03:22;30.30;52.30
71672;DHT22;59753;45.624;11.700;2022-07-06T23:05:48;30.20;52.70
71672;DHT22;59753;45.624;11.700;2022-07-06T23:08:15;30.30;52.90
71672;DHT22;59753;45.624;11.700;2022-07-06T23:10:42;30.30;53.10
71672;DHT22;59753;45.624;11.700;2022-07-06T23:13:08;30.20;53.20
71672;DHT22;59753;45.624;11.700;2022-07-06T23:15:34;30.20;53.10
71672;DHT22;59753;45.624;11.700;2022-07-06T23:18:01;30.20;53.60
71672;DHT22;59753;45.624;11.700;2022-07-06T23:20:29;30.20;53.60
71672;DHT22;59753;45.624;11.700;2022-07-06T23:22:55;30.10;53.80
71672;DHT22;59753;45.624;11.700;2022-07-06T23:25:21;30.00;54.50
71672;DHT22;59753;45.624;11.700;2022-07-06T23:27:47;30.00;54.60
71672;DHT22;59753;45.624;11.700;2022-07-06T23:30:14;30.00;54.90
71672;DHT22;59753;45.624;11.700;2022-07-06T23:32:40;30.00;54.90
71672;DHT22;59753;45.624;11.700;2022-07-06T23:35:07;30.00;55.10
71672;DHT22;59753;45.624;11.700;2022-07-06T23:37:34;29.90;55.10
71672;DHT22;59753;45.624;11.700;2022-07-06T23:40:00;29.90;55.30
71672;DHT22;59753;45.624;11.700;2022-07-06T23:42:26;29.90;56.20
71672;DHT22;59753;45.624;11.700;2022-07-06T23:44:52;29.90;56.10
71672;DHT22;59753;45.624;11.700;2022-07-06T23:47:18;29.90;56.20
71672;DHT22;59753;45.624;11.700;2022-07-06T23:49:45;29.90;56.40
71672;DHT22;59753;45.624;11.700;2022-07-06T23:52:11;29.90;56.60
71672;DHT22;59753;45.624;11.700;2022-07-06T23:54:37;29.90;56.90
71672;DHT22;59753;45.624;11.700;2022-07-06T23:57:03;29.80;56.80
71672;DHT22;59753;45.624;11.700;2022-07-06T23:59:29;29.80;56.80
